createdAt,value
2018-05-15T00:02:16.485Z,16.53
2018-05-15T00:04:45.310Z,16.51
2018-05-15T00:07:13.668Z,16.50
2018-05-15T00:09:41.988Z,16.46
2018-05-15T00:12:10.292Z,16.35
2018-05-15T00:14:38.573Z,16.26
2018-05-15T00:17:06.843Z,16.16
2018-05-15T00:19:35.167Z,16.16
2018-05-15T00:22:03.457Z,16.13
2018-05-15T00:24:31.762Z,16.12
2018-05-15T00:27:00.106Z,16.19
2018-05-15T00:29:28.424Z,16.25
2018-05-15T00:31:56.717Z,16.31
2018-05-15T00:34:24.999Z,16.28
2018-05-15T00:36:53.273Z,16.29
2018-05-15T00:39:21.569Z,16.30
2018-05-15T00:41:49.872Z,16.19
2018-05-15T00:44:18.274Z,16.14
2018-05-15T00:46:46.554Z,16.19
2018-05-15T00:49:14.799Z,16.13
2018-05-15T00:51:43.121Z,16.07
2018-05-15T00:54:11.432Z,16.09
2018-05-15T00:56:39.762Z,16.09
2018-05-15T00:59:08.035Z,16.13
2018-05-15T01:01:36.672Z,16.21
2018-05-15T01:04:05.030Z,16.19
2018-05-15T01:06:33.326Z,16.08
2018-05-15T01:09:01.642Z,16.03
2018-05-15T01:11:29.941Z,16.02
2018-05-15T01:13:58.235Z,15.91
2018-05-15T01:16:26.515Z,15.87
2018-05-15T01:18:54.879Z,15.89
2018-05-15T01:21:23.146Z,15.84
2018-05-15T01:23:51.459Z,15.77
2018-05-15T01:26:19.780Z,15.67
2018-05-15T01:28:48.101Z,15.63
2018-05-15T01:31:16.378Z,15.47
2018-05-15T01:33:44.737Z,15.43
2018-05-15T01:36:13.009Z,15.51
2018-05-15T01:38:41.271Z,15.54
2018-05-15T01:41:09.591Z,15.43
2018-05-15T01:43:37.888Z,15.44
2018-05-15T01:46:06.202Z,15.44
2018-05-15T01:48:35.363Z,15.42
2018-05-15T01:51:03.663Z,15.39
2018-05-15T01:53:31.954Z,15.34
2018-05-15T01:56:00.734Z,15.23
2018-05-15T01:58:29.040Z,15.27
2018-05-15T02:00:57.351Z,15.29
2018-05-15T02:03:25.723Z,15.33
2018-05-15T02:05:54.039Z,15.42
2018-05-15T02:08:22.519Z,15.40
2018-05-15T02:10:50.922Z,15.46
2018-05-15T02:13:20.141Z,15.48
2018-05-15T02:15:48.426Z,15.38
2018-05-15T02:18:16.704Z,15.29
2018-05-15T02:20:45.020Z,15.40
2018-05-15T02:23:13.371Z,15.23
2018-05-15T02:25:42.006Z,15.21
2018-05-15T02:28:11.288Z,15.35
2018-05-15T02:30:39.727Z,15.17
2018-05-15T02:33:08.006Z,15.04
2018-05-15T02:35:36.346Z,14.86
2018-05-15T02:38:05.010Z,14.71
2018-05-15T02:40:33.325Z,14.63
2018-05-15T02:43:01.652Z,14.72
2018-05-15T02:45:30.027Z,14.71
2018-05-15T02:47:58.310Z,14.75
2018-05-15T02:50:26.602Z,14.80
2018-05-15T02:52:54.898Z,14.69
2018-05-15T02:55:23.175Z,14.70
2018-05-15T02:57:51.560Z,14.74
2018-05-15T03:00:19.763Z,14.77
2018-05-15T03:02:48.115Z,14.71
2018-05-15T03:05:16.415Z,14.58
2018-05-15T03:07:44.695Z,14.57
2018-05-15T03:10:13.899Z,14.56
2018-05-15T03:12:42.177Z,14.52
2018-05-15T03:15:10.473Z,14.48
2018-05-15T03:17:38.751Z,14.50
2018-05-15T03:20:07.043Z,14.48
2018-05-15T03:22:35.329Z,14.49
2018-05-15T03:25:04.075Z,14.36
2018-05-15T03:27:32.366Z,14.36
2018-05-15T03:30:00.629Z,14.26
2018-05-15T03:32:29.636Z,14.27
2018-05-15T03:34:57.903Z,14.26
2018-05-15T03:37:26.174Z,14.29
2018-05-15T03:39:54.478Z,14.23
2018-05-15T03:42:22.754Z,14.32
2018-05-15T03:44:51.125Z,14.32
2018-05-15T03:47:19.394Z,14.34
2018-05-15T03:49:47.732Z,14.21
2018-05-15T03:52:15.989Z,14.15
2018-05-15T03:54:45.708Z,14.11
2018-05-15T03:57:13.971Z,14.05
2018-05-15T03:59:42.283Z,14.06
2018-05-15T04:02:22.312Z,14.06
2018-05-15T04:05:02.613Z,14.10
2018-05-15T04:07:42.689Z,14.12
2018-05-15T04:10:10.978Z,14.13
2018-05-15T04:12:40.170Z,14.03
2018-05-15T04:15:08.474Z,14.03
2018-05-15T04:17:36.745Z,13.98
2018-05-15T04:20:05.090Z,14.01
2018-05-15T04:22:33.367Z,13.98
2018-05-15T04:25:01.696Z,13.88
2018-05-15T04:27:29.975Z,13.96
2018-05-15T04:29:58.349Z,13.89
2018-05-15T04:32:26.663Z,13.85
2018-05-15T04:34:54.959Z,14.06
2018-05-15T04:37:23.275Z,14.12
2018-05-15T04:39:51.576Z,14.00
2018-05-15T04:42:19.851Z,13.93
2018-05-15T04:44:48.236Z,13.81
2018-05-15T04:47:16.499Z,13.90
2018-05-15T04:49:44.801Z,13.98
2018-05-15T04:52:13.117Z,13.94
2018-05-15T04:54:41.380Z,13.99
2018-05-15T04:57:10.415Z,13.96
2018-05-15T04:59:38.667Z,14.05
2018-05-15T05:02:07.190Z,14.10
2018-05-15T05:04:35.320Z,14.05
2018-05-15T05:07:03.612Z,14.01
2018-05-15T05:09:31.877Z,14.07
2018-05-15T05:12:00.270Z,14.16
2018-05-15T05:14:28.554Z,14.12
2018-05-15T05:16:57.045Z,14.28
2018-05-15T05:19:27.210Z,14.23
2018-05-15T05:21:56.913Z,14.23
2018-05-15T05:24:25.185Z,14.24
2018-05-15T05:26:53.513Z,14.20
2018-05-15T05:29:22.443Z,14.28
2018-05-15T05:31:51.355Z,14.33
2018-05-15T05:34:19.650Z,14.34
2018-05-15T05:36:47.999Z,14.37
2018-05-15T05:39:16.310Z,14.37
2018-05-15T05:41:44.581Z,14.34
2018-05-15T05:44:12.976Z,14.37
2018-05-15T05:46:41.163Z,14.38
2018-05-15T05:49:09.452Z,14.52
2018-05-15T05:51:38.827Z,14.67
2018-05-15T05:54:07.157Z,14.65
2018-05-15T05:56:35.486Z,14.71
2018-05-15T05:59:03.768Z,14.80
2018-05-15T06:01:32.030Z,14.97
2018-05-15T06:04:00.360Z,15.27
2018-05-15T06:06:28.673Z,15.31
2018-05-15T06:08:56.978Z,15.31
2018-05-15T06:11:25.236Z,15.34
2018-05-15T06:13:53.525Z,15.39
2018-05-15T06:16:21.794Z,15.34
2018-05-15T06:18:50.131Z,15.48
2018-05-15T06:21:18.430Z,15.64
2018-05-15T06:23:46.719Z,15.75
2018-05-15T06:26:15.044Z,15.89
2018-05-15T06:28:43.333Z,16.12
2018-05-15T06:31:11.618Z,16.24
2018-05-15T06:33:39.947Z,16.32
2018-05-15T06:36:08.245Z,16.36
2018-05-15T06:38:36.572Z,16.41
2018-05-15T06:41:05.696Z,16.49
2018-05-15T06:43:34.004Z,16.64
2018-05-15T06:46:02.313Z,16.73
2018-05-15T06:48:30.574Z,16.84
2018-05-15T06:50:58.883Z,17.00
2018-05-15T06:53:27.490Z,17.13
2018-05-15T06:55:55.794Z,17.16
2018-05-15T06:58:24.105Z,17.20
2018-05-15T07:00:52.454Z,17.13
2018-05-15T07:03:20.819Z,17.17
2018-05-15T07:05:49.113Z,17.29
2018-05-15T07:08:17.482Z,17.24
2018-05-15T07:10:45.763Z,17.56
2018-05-15T07:13:15.428Z,17.60
2018-05-15T07:15:46.778Z,17.63
2018-05-15T07:18:15.154Z,17.67
2018-05-15T07:20:43.447Z,17.61
2018-05-15T07:23:11.734Z,17.54
2018-05-15T07:25:40.265Z,17.55
2018-05-15T07:28:08.572Z,17.50
2018-05-15T07:30:36.853Z,17.49
2018-05-15T07:33:05.154Z,17.59
2018-05-15T07:35:33.455Z,17.81
2018-05-15T07:38:01.756Z,18.10
2018-05-15T07:40:30.123Z,18.31
2018-05-15T07:42:58.434Z,18.52
2018-05-15T07:45:26.712Z,18.65
2018-05-15T07:47:55.015Z,18.77
2018-05-15T07:50:23.296Z,18.84
2018-05-15T07:52:51.564Z,18.92
2018-05-15T07:55:19.898Z,19.01
2018-05-15T07:57:48.197Z,19.05
2018-05-15T08:00:16.505Z,19.21
2018-05-15T08:02:44.834Z,19.28
2018-05-15T08:05:13.152Z,19.30
2018-05-15T08:07:41.644Z,19.41
2018-05-15T08:10:10.636Z,19.54
2018-05-15T08:12:38.908Z,19.70
2018-05-15T08:15:07.197Z,19.84
2018-05-15T08:17:35.546Z,19.94
2018-05-15T08:20:03.854Z,20.04
2018-05-15T08:22:32.136Z,19.91
2018-05-15T08:25:02.267Z,19.91
2018-05-15T08:27:30.503Z,19.92
2018-05-15T08:29:58.846Z,19.65
2018-05-15T08:32:27.110Z,19.34
2018-05-15T08:34:55.412Z,19.19
2018-05-15T08:37:23.772Z,19.46
2018-05-15T08:39:54.990Z,19.67
2018-05-15T08:42:23.311Z,19.82
2018-05-15T08:44:51.610Z,19.94
2018-05-15T08:47:19.997Z,19.90
2018-05-15T08:49:48.283Z,19.98
2018-05-15T08:52:16.556Z,20.24
2018-05-15T08:54:44.895Z,20.36
2018-05-15T08:57:13.230Z,20.50
2018-05-15T08:59:41.557Z,20.49
2018-05-15T09:02:09.875Z,20.45
2018-05-15T09:04:38.207Z,20.34
2018-05-15T09:07:06.493Z,20.25
2018-05-15T09:09:35.133Z,20.21
2018-05-15T09:12:04.400Z,20.07
2018-05-15T09:14:32.669Z,19.88
2018-05-15T09:17:00.963Z,19.82
2018-05-15T09:19:29.265Z,19.95
2018-05-15T09:21:57.614Z,20.08
2018-05-15T09:24:26.012Z,20.19
2018-05-15T09:26:54.416Z,20.28
2018-05-15T09:29:22.823Z,19.90
2018-05-15T09:31:51.125Z,19.92
2018-05-15T09:34:19.384Z,19.85
2018-05-15T09:36:47.775Z,19.87
2018-05-15T09:39:17.083Z,19.83
2018-05-15T09:41:46.407Z,19.72
2018-05-15T09:44:14.766Z,19.96
2018-05-15T09:46:43.120Z,20.14
2018-05-15T09:49:12.494Z,20.23
2018-05-15T09:51:40.791Z,20.43
2018-05-15T09:54:09.200Z,20.81
2018-05-15T09:56:38.196Z,21.16
2018-05-15T09:59:06.531Z,21.16
2018-05-15T10:01:35.647Z,21.21
2018-05-15T10:04:04.052Z,21.11
2018-05-15T10:06:32.593Z,21.48
2018-05-15T10:09:00.838Z,21.75
2018-05-15T10:11:29.822Z,22.02
2018-05-15T10:13:58.127Z,22.14
2018-05-15T10:16:26.795Z,21.82
2018-05-15T10:18:55.162Z,21.39
2018-05-15T10:21:23.442Z,21.43
2018-05-15T10:23:51.768Z,21.35
2018-05-15T10:26:20.141Z,21.62
2018-05-15T10:28:48.454Z,21.92
2018-05-15T10:31:16.729Z,22.30
2018-05-15T10:33:45.038Z,22.50
2018-05-15T10:36:13.342Z,22.68
2018-05-15T10:38:41.717Z,22.81
2018-05-15T10:41:10.363Z,22.79
2018-05-15T10:43:38.837Z,22.73
2018-05-15T10:46:07.116Z,22.79
2018-05-15T10:48:35.407Z,22.40
2018-05-15T10:51:03.777Z,22.02
2018-05-15T10:53:32.106Z,22.34
2018-05-15T10:56:00.416Z,22.43
2018-05-15T10:58:29.021Z,22.59
2018-05-15T11:00:57.344Z,22.47
2018-05-15T11:03:25.606Z,22.82
2018-05-15T11:05:53.967Z,22.96
2018-05-15T11:08:22.286Z,22.68
2018-05-15T11:10:50.706Z,22.15
2018-05-15T11:13:18.975Z,22.42
2018-05-15T11:15:47.266Z,22.29
2018-05-15T11:18:27.363Z,22.22
2018-05-15T11:21:07.934Z,22.23
2018-05-15T11:23:48.197Z,22.24
2018-05-15T11:26:16.529Z,22.67
2018-05-15T11:28:45.144Z,23.03
2018-05-15T11:31:13.944Z,23.26
2018-05-15T11:33:42.273Z,23.32
2018-05-15T11:36:11.656Z,23.28
2018-05-15T11:38:42.797Z,23.33
2018-05-15T11:41:11.560Z,23.16
2018-05-15T11:43:40.172Z,23.14
2018-05-15T11:46:08.550Z,23.16
2018-05-15T11:48:37.211Z,23.33
2018-05-15T11:51:06.492Z,23.34
2018-05-15T11:53:34.500Z,23.46
2018-05-15T11:56:02.958Z,23.75
2018-05-15T11:58:31.585Z,23.90
2018-05-15T12:01:00.034Z,24.02
2018-05-15T12:03:28.320Z,24.14
2018-05-15T12:05:56.617Z,24.11
2018-05-15T12:08:24.971Z,24.04
2018-05-15T12:10:53.228Z,23.83
2018-05-15T12:13:22.931Z,24.21
2018-05-15T12:15:51.270Z,24.02
2018-05-15T12:18:19.921Z,24.24
2018-05-15T12:20:48.527Z,24.56
2018-05-15T12:23:16.850Z,24.81
2018-05-15T12:25:45.114Z,24.62
2018-05-15T12:28:14.707Z,24.36
2018-05-15T12:30:44.039Z,24.68
2018-05-15T12:33:12.443Z,24.95
2018-05-15T12:35:40.721Z,24.72
2018-05-15T12:38:09.021Z,24.61
2018-05-15T12:40:37.329Z,24.27
2018-05-15T12:43:05.614Z,24.92
2018-05-15T12:45:33.932Z,25.13
2018-05-15T12:48:02.265Z,24.67
2018-05-15T12:50:30.660Z,25.11
2018-05-15T12:52:58.923Z,25.18
2018-05-15T12:55:27.214Z,24.87
2018-05-15T12:57:55.587Z,25.29
2018-05-15T13:00:24.174Z,25.31
2018-05-15T13:02:52.503Z,25.05
2018-05-15T13:05:20.953Z,24.92
2018-05-15T13:07:49.270Z,24.57
2018-05-15T13:10:17.621Z,24.68
2018-05-15T13:12:45.961Z,24.89
2018-05-15T13:15:14.346Z,24.89
2018-05-15T13:17:42.729Z,24.93
2018-05-15T13:20:11.053Z,25.03
2018-05-15T13:22:39.333Z,24.55
2018-05-15T13:25:07.642Z,24.16
2018-05-15T13:27:35.917Z,24.01
2018-05-15T13:30:04.911Z,24.58
2018-05-15T13:32:33.292Z,24.91
2018-05-15T13:35:01.721Z,24.97
2018-05-15T13:37:30.030Z,24.99
2018-05-15T13:39:58.326Z,24.98
2018-05-15T13:42:26.602Z,24.96
2018-05-15T13:44:54.895Z,24.21
2018-05-15T13:47:23.254Z,24.55
2018-05-15T13:49:51.603Z,24.56
2018-05-15T13:52:19.934Z,24.61
2018-05-15T13:54:48.353Z,24.60
2018-05-15T13:57:16.616Z,24.39
2018-05-15T13:59:44.921Z,23.98
2018-05-15T14:02:13.288Z,23.53
2018-05-15T14:04:41.579Z,23.65
2018-05-15T14:07:10.800Z,23.90
2018-05-15T14:09:39.151Z,24.01
2018-05-15T14:12:07.683Z,24.25
2018-05-15T14:14:36.162Z,24.57
2018-05-15T14:17:05.056Z,25.00
2018-05-15T14:19:33.357Z,25.34
2018-05-15T14:22:01.715Z,25.11
2018-05-15T14:24:31.252Z,25.09
2018-05-15T14:26:59.582Z,25.08
2018-05-15T14:29:28.239Z,24.90
2018-05-15T14:31:56.587Z,24.77
2018-05-15T14:34:24.892Z,24.73
2018-05-15T14:36:53.185Z,24.67
2018-05-15T14:39:21.617Z,24.33
2018-05-15T14:42:01.553Z,24.11
2018-05-15T14:44:29.859Z,23.83
2018-05-15T14:46:58.158Z,23.90
2018-05-15T14:49:26.568Z,23.91
2018-05-15T14:51:54.849Z,23.99
2018-05-15T14:54:23.435Z,24.15
2018-05-15T14:56:51.806Z,24.58
2018-05-15T14:59:20.110Z,24.99
2018-05-15T15:01:48.399Z,25.40
2018-05-15T15:04:16.719Z,25.36
2018-05-15T15:06:45.081Z,25.07
2018-05-15T15:09:13.394Z,24.87
2018-05-15T15:11:42.202Z,24.75
2018-05-15T15:14:10.810Z,25.33
2018-05-15T15:16:39.079Z,25.99
2018-05-15T15:19:07.350Z,26.28
2018-05-15T15:21:35.704Z,26.09
2018-05-15T15:24:04.353Z,27.23
2018-05-15T15:26:32.662Z,27.37
2018-05-15T15:29:00.941Z,27.96
2018-05-15T15:31:29.246Z,28.41
2018-05-15T15:33:57.515Z,28.69
2018-05-15T15:36:26.654Z,28.31
2018-05-15T15:38:54.958Z,27.78
2018-05-15T15:41:23.263Z,26.35
2018-05-15T15:43:51.565Z,25.86
2018-05-15T15:46:19.923Z,25.64
2018-05-15T15:48:48.923Z,25.39
2018-05-15T15:51:17.255Z,25.15
2018-05-15T15:53:45.587Z,25.18
2018-05-15T15:56:13.908Z,24.99
2018-05-15T15:58:42.243Z,25.21
2018-05-15T16:01:10.526Z,25.04
2018-05-15T16:03:38.813Z,25.43
2018-05-15T16:06:07.234Z,25.52
2018-05-15T16:08:35.525Z,25.54
2018-05-15T16:11:04.462Z,25.42
2018-05-15T16:13:32.770Z,25.53
2018-05-15T16:16:01.057Z,25.52
2018-05-15T16:18:29.355Z,25.63
2018-05-15T16:20:57.629Z,26.00
2018-05-15T16:23:25.930Z,26.19
2018-05-15T16:25:54.621Z,26.18
2018-05-15T16:28:23.196Z,26.43
2018-05-15T16:30:51.473Z,26.74
2018-05-15T16:33:25.285Z,26.93
2018-05-15T16:35:54.381Z,26.67
2018-05-15T16:38:24.353Z,26.68
2018-05-15T16:40:53.316Z,26.30
2018-05-15T16:43:21.747Z,25.72
2018-05-15T16:45:50.772Z,25.61
2018-05-15T16:48:19.156Z,25.64
2018-05-15T16:50:47.419Z,25.64
2018-05-15T16:53:15.763Z,25.55
2018-05-15T16:55:44.058Z,25.56
2018-05-15T16:58:12.385Z,25.46
2018-05-15T17:00:40.688Z,25.33
2018-05-15T17:03:10.193Z,25.15
2018-05-15T17:05:38.527Z,25.01
2018-05-15T17:08:06.876Z,24.27
2018-05-15T17:10:35.194Z,24.22
2018-05-15T17:13:03.437Z,24.12
2018-05-15T17:15:32.644Z,24.33
2018-05-15T17:18:00.879Z,24.31
2018-05-15T17:20:29.221Z,24.39
2018-05-15T17:22:57.498Z,24.48
2018-05-15T17:25:25.896Z,24.45
2018-05-15T17:27:54.091Z,24.27
2018-05-15T17:30:22.476Z,24.20
2018-05-15T17:32:50.811Z,24.15
2018-05-15T17:35:19.099Z,23.95
2018-05-15T17:37:47.359Z,23.98
2018-05-15T17:40:15.724Z,23.94
2018-05-15T17:42:44.031Z,23.95
2018-05-15T17:45:12.423Z,23.91
2018-05-15T17:47:40.686Z,23.74
2018-05-15T17:50:09.000Z,23.70
2018-05-15T17:52:37.311Z,23.79
2018-05-15T17:55:05.581Z,23.60
2018-05-15T17:57:33.888Z,23.33
2018-05-15T18:00:02.292Z,23.31
2018-05-15T18:02:30.575Z,23.46
2018-05-15T18:04:58.892Z,23.44
2018-05-15T18:07:27.228Z,23.47
2018-05-15T18:09:55.496Z,23.48
2018-05-15T18:12:23.789Z,23.26
2018-05-15T18:14:52.136Z,23.10
2018-05-15T18:17:20.482Z,23.02
2018-05-15T18:19:49.367Z,23.03
2018-05-15T18:22:17.667Z,23.05
2018-05-15T18:24:46.029Z,22.99
2018-05-15T18:27:15.028Z,22.95
2018-05-15T18:29:43.298Z,23.00
2018-05-15T18:32:11.994Z,23.02
2018-05-15T18:34:40.609Z,22.93
2018-05-15T18:37:09.793Z,23.00
2018-05-15T18:39:38.141Z,23.13
2018-05-15T18:42:06.416Z,23.00
2018-05-15T18:44:34.756Z,22.99
2018-05-15T18:47:03.083Z,22.98
2018-05-15T18:49:31.608Z,22.98
2018-05-15T18:51:59.963Z,23.00
2018-05-15T18:54:28.338Z,22.87
2018-05-15T18:56:56.683Z,22.82
2018-05-15T18:59:24.973Z,22.77
2018-05-15T19:01:54.132Z,22.81
2018-05-15T19:04:22.463Z,22.73
2018-05-15T19:06:50.857Z,22.66
2018-05-15T19:09:19.125Z,22.61
2018-05-15T19:11:47.440Z,22.43
2018-05-15T19:14:15.766Z,22.46
2018-05-15T19:16:44.032Z,22.49
2018-05-15T19:19:12.427Z,22.39
2018-05-15T19:21:40.688Z,22.39
2018-05-15T19:24:09.011Z,22.42
2018-05-15T19:26:37.361Z,22.45
2018-05-15T19:29:05.681Z,22.32
2018-05-15T19:31:37.826Z,22.31
2018-05-15T19:34:11.862Z,22.23
2018-05-15T19:36:45.778Z,22.12
2018-05-15T19:39:14.244Z,21.91
2018-05-15T19:41:42.480Z,21.85
2018-05-15T19:44:10.828Z,21.87
2018-05-15T19:46:39.129Z,21.87
2018-05-15T19:49:07.408Z,21.81
2018-05-15T19:51:35.733Z,21.68
2018-05-15T19:54:05.060Z,20.87
2018-05-15T19:56:33.750Z,20.55
2018-05-15T19:59:02.013Z,20.55
2018-05-15T20:01:31.133Z,20.55
2018-05-15T20:03:59.427Z,20.38
2018-05-15T20:06:27.880Z,20.28
2018-05-15T20:08:56.144Z,20.25
2018-05-15T20:11:24.704Z,20.27
2018-05-15T20:13:52.983Z,20.23
2018-05-15T20:16:21.293Z,20.09
2018-05-15T20:18:49.572Z,19.97
2018-05-15T20:21:17.890Z,20.18
2018-05-15T20:23:46.249Z,20.21
2018-05-15T20:26:14.520Z,20.17
2018-05-15T20:28:42.818Z,20.11
2018-05-15T20:31:11.130Z,20.14
2018-05-15T20:33:39.404Z,20.17
2018-05-15T20:36:08.615Z,20.21
2018-05-15T20:38:36.896Z,20.29
2018-05-15T20:41:05.183Z,20.24
2018-05-15T20:43:33.531Z,20.06
2018-05-15T20:46:01.789Z,20.20
2018-05-15T20:48:30.580Z,20.29
2018-05-15T20:50:58.847Z,21.07
2018-05-15T20:53:27.126Z,21.62
2018-05-15T20:55:56.444Z,21.96
2018-05-15T20:58:24.797Z,22.15
2018-05-15T21:00:53.659Z,22.25
2018-05-15T21:03:21.986Z,22.27
2018-05-15T21:05:50.279Z,21.46
2018-05-15T21:08:18.583Z,20.94
2018-05-15T21:10:46.944Z,20.61
2018-05-15T21:13:15.233Z,20.40
2018-05-15T21:15:43.556Z,20.27
2018-05-15T21:18:11.905Z,20.19
2018-05-15T21:20:40.175Z,20.20
2018-05-15T21:23:08.485Z,20.17
2018-05-15T21:25:36.844Z,20.22
2018-05-15T21:28:05.189Z,20.21
2018-05-15T21:30:33.543Z,20.08
2018-05-15T21:33:01.829Z,20.10
2018-05-15T21:35:30.115Z,19.96
2018-05-15T21:37:58.377Z,19.90
2018-05-15T21:40:26.683Z,19.88
2018-05-15T21:42:54.946Z,19.79
2018-05-15T21:45:23.264Z,19.62
2018-05-15T21:47:51.693Z,19.71
2018-05-15T21:50:19.981Z,19.84
2018-05-15T21:52:48.310Z,19.83
2018-05-15T21:55:16.550Z,19.85
2018-05-15T21:57:44.802Z,19.87
2018-05-15T22:00:13.114Z,19.81
2018-05-15T22:02:41.437Z,19.73
2018-05-15T22:05:11.260Z,19.38
2018-05-15T22:07:40.077Z,19.26
2018-05-15T22:10:09.136Z,19.08
2018-05-15T22:12:49.198Z,18.96
2018-05-15T22:15:29.142Z,18.85
2018-05-15T22:18:09.204Z,18.89
2018-05-15T22:20:49.402Z,18.93
2018-05-15T22:23:17.116Z,18.93
2018-05-15T22:25:45.491Z,19.03
2018-05-15T22:28:13.874Z,19.16
2018-05-15T22:30:42.150Z,19.23
2018-05-15T22:33:10.454Z,19.34
2018-05-15T22:35:38.733Z,19.44
2018-05-15T22:38:07.023Z,19.42
2018-05-15T22:40:35.282Z,19.26
2018-05-15T22:43:03.608Z,19.30
2018-05-15T22:45:31.866Z,19.32
2018-05-15T22:48:00.123Z,19.21
2018-05-15T22:50:28.397Z,19.18
2018-05-15T22:52:56.663Z,19.04
2018-05-15T22:55:24.973Z,18.86
2018-05-15T22:57:53.250Z,18.83
2018-05-15T23:00:21.549Z,18.97
2018-05-15T23:02:49.936Z,18.97
2018-05-15T23:05:18.207Z,18.99
2018-05-15T23:07:47.239Z,18.96
2018-05-15T23:10:15.563Z,18.90
2018-05-15T23:12:43.856Z,18.95
2018-05-15T23:15:12.143Z,18.93
2018-05-15T23:17:40.420Z,18.72
2018-05-15T23:20:08.698Z,18.42
2018-05-15T23:22:43.856Z,18.44
2018-05-15T23:25:12.171Z,18.53
2018-05-15T23:27:40.487Z,18.59
2018-05-15T23:30:09.576Z,18.57
2018-05-15T23:32:37.962Z,18.51
2018-05-15T23:35:06.243Z,18.43
2018-05-15T23:37:34.542Z,18.48
2018-05-15T23:40:02.827Z,18.40
2018-05-15T23:42:31.146Z,18.29
2018-05-15T23:44:59.676Z,18.20
2018-05-15T23:47:27.987Z,18.17
2018-05-15T23:49:56.235Z,18.15
2018-05-15T23:52:31.849Z,18.19
2018-05-15T23:55:00.088Z,18.15
2018-05-15T23:57:28.436Z,18.14
2018-05-15T23:59:56.772Z,17.93
